createdAt,value
2023-02-23T00:01:21.840Z,37.88
2023-02-23T00:06:24.944Z,41.47
2023-02-23T00:11:27.377Z,42.42
2023-02-23T00:16:29.011Z,43.30
2023-02-23T00:21:32.794Z,41.58
2023-02-23T00:26:35.388Z,39.97
2023-02-23T00:31:38.468Z,40.83
2023-02-23T00:36:40.756Z,38.35
2023-02-23T00:41:42.458Z,36.53
2023-02-23T00:46:45.288Z,38.95
2023-02-23T00:51:46.906Z,36.30
2023-02-23T00:56:48.641Z,37.22
2023-02-23T01:01:50.050Z,35.17
2023-02-23T01:06:51.422Z,35.45
2023-02-23T01:11:52.811Z,35.08
2023-02-23T01:16:54.715Z,38.00
2023-02-23T01:21:56.036Z,38.53
2023-02-23T01:26:57.611Z,37.45
2023-02-23T01:31:59.025Z,39.67
2023-02-23T01:37:00.418Z,39.13
2023-02-23T01:42:01.731Z,35.70
2023-02-23T01:47:04.104Z,35.72
2023-02-23T01:52:11.175Z,35.92
2023-02-23T01:57:14.437Z,41.58
2023-02-23T02:02:23.015Z,37.72
2023-02-23T02:07:28.724Z,35.75
2023-02-23T02:12:30.534Z,43.95
2023-02-23T02:18:03.273Z,36.78
2023-02-23T02:23:32.579Z,43.28
2023-02-23T02:28:54.762Z,41.45
2023-02-23T02:34:29.547Z,48.10
2023-02-23T02:39:53.505Z,49.60
2023-02-23T02:45:12.609Z,50.03
2023-02-23T02:50:30.684Z,51.20
2023-02-23T02:55:35.163Z,51.83
2023-02-23T03:01:07.384Z,53.70
2023-02-23T03:06:27.518Z,58.30
2023-02-23T03:11:58.987Z,53.03
2023-02-23T03:17:55.505Z,64.15
2023-02-23T03:23:24.241Z,61.05
2023-02-23T03:28:52.180Z,61.38
2023-02-23T03:34:22.982Z,60.85
2023-02-23T03:39:51.249Z,66.65
2023-02-23T03:45:14.668Z,64.95
2023-02-23T03:50:45.358Z,66.13
2023-02-23T03:56:11.504Z,66.47
2023-02-23T04:01:34.341Z,69.75
2023-02-23T04:06:59.088Z,72.85
2023-02-23T04:12:28.004Z,68.13
2023-02-23T04:17:29.918Z,72.32
2023-02-23T04:22:31.741Z,70.30
2023-02-23T04:27:33.054Z,66.40
2023-02-23T04:32:34.491Z,73.00
2023-02-23T04:37:35.845Z,77.53
2023-02-23T04:42:39.664Z,77.68
2023-02-23T04:47:41.399Z,74.22
2023-02-23T04:52:43.291Z,88.30
2023-02-23T04:57:44.653Z,131.38
2023-02-23T05:02:46.047Z,114.50
2023-02-23T05:07:47.466Z,77.95
2023-02-23T05:12:48.923Z,77.47
2023-02-23T05:17:50.259Z,73.82
2023-02-23T05:22:51.580Z,65.03
2023-02-23T05:27:52.909Z,70.05
2023-02-23T05:32:54.219Z,74.07
2023-02-23T05:37:55.907Z,72.45
2023-02-23T05:43:00.441Z,83.55
2023-02-23T05:48:02.029Z,78.82
2023-02-23T05:53:04.193Z,78.07
2023-02-23T05:58:06.190Z,78.40
2023-02-23T06:03:07.520Z,76.32
2023-02-23T06:08:09.216Z,75.35
2023-02-23T06:13:11.082Z,84.03
2023-02-23T06:18:12.801Z,76.85
2023-02-23T06:23:15.592Z,90.47
2023-02-23T06:28:16.903Z,91.35
2023-02-23T06:33:18.573Z,89.60
2023-02-23T06:38:20.735Z,96.40
2023-02-23T06:43:23.350Z,91.13
2023-02-23T06:48:24.788Z,90.72
2023-02-23T06:53:26.173Z,98.88
2023-02-23T06:58:28.326Z,92.68
2023-02-23T07:03:29.642Z,101.30
2023-02-23T07:08:31.861Z,82.90
2023-02-23T07:13:33.236Z,88.40
2023-02-23T07:18:34.604Z,97.82
2023-02-23T07:23:35.963Z,104.10
2023-02-23T07:28:38.113Z,98.35
2023-02-23T07:33:39.641Z,97.82
2023-02-23T07:38:40.962Z,103.43
2023-02-23T07:43:42.285Z,97.18
2023-02-23T07:48:44.875Z,100.03
2023-02-23T07:53:46.232Z,112.78
2023-02-23T07:58:47.641Z,109.85
2023-02-23T08:03:50.285Z,103.82
2023-02-23T08:08:51.684Z,103.75
2023-02-23T08:13:53.976Z,97.40
2023-02-23T08:18:58.921Z,89.18
2023-02-23T08:24:00.401Z,89.90
2023-02-23T08:29:01.757Z,87.63
2023-02-23T08:34:03.109Z,82.70
2023-02-23T08:39:07.361Z,83.35
2023-02-23T08:44:08.884Z,82.43
2023-02-23T08:49:10.733Z,94.82
2023-02-23T08:54:14.768Z,77.38
2023-02-23T08:59:16.106Z,72.22
2023-02-23T09:04:18.287Z,71.22
2023-02-23T09:09:19.620Z,60.45
2023-02-23T09:14:21.096Z,63.35
2023-02-23T09:19:22.402Z,63.58
2023-02-23T09:24:23.725Z,63.83
2023-02-23T09:29:25.035Z,65.47
2023-02-23T09:34:29.272Z,62.53
2023-02-23T09:39:38.248Z,65.00
2023-02-23T09:44:49.113Z,63.92
2023-02-23T09:49:51.731Z,62.60
2023-02-23T09:54:53.604Z,65.85
2023-02-23T09:59:54.979Z,57.13
2023-02-23T10:05:02.810Z,59.90
2023-02-23T10:10:04.328Z,55.75
2023-02-23T10:15:23.739Z,48.78
2023-02-23T10:20:34.665Z,44.50
2023-02-23T10:25:41.548Z,41.65
2023-02-23T10:30:44.243Z,47.92
2023-02-23T10:35:46.031Z,46.17
2023-02-23T10:40:55.859Z,46.35
2023-02-23T10:45:57.800Z,44.63
2023-02-23T10:51:02.600Z,46.95
2023-02-23T10:56:16.858Z,46.17
2023-02-23T11:02:01.855Z,42.97
2023-02-23T11:07:18.105Z,38.50
2023-02-23T11:12:43.942Z,33.92
2023-02-23T11:17:45.362Z,30.30
2023-02-23T11:22:47.101Z,31.15
2023-02-23T11:27:51.457Z,35.28
2023-02-23T11:32:59.443Z,28.27
2023-02-23T11:38:15.389Z,25.15
2023-02-23T11:43:16.702Z,27.90
2023-02-23T11:48:34.291Z,35.03
2023-02-23T11:59:08.252Z,29.52
2023-02-23T12:04:23.882Z,30.73
2023-02-23T12:09:32.592Z,24.80
2023-02-23T12:14:42.367Z,21.45
2023-02-23T12:19:51.236Z,20.95
2023-02-23T12:25:02.693Z,21.67
2023-02-23T12:30:10.166Z,21.83
2023-02-23T12:35:21.763Z,19.27
2023-02-23T12:40:30.506Z,19.80
2023-02-23T12:45:50.264Z,18.75
2023-02-23T12:50:54.728Z,19.15
2023-02-23T12:56:11.865Z,20.27
2023-02-23T13:01:36.306Z,16.95
2023-02-23T13:06:52.827Z,12.57
2023-02-23T13:12:13.409Z,10.60
2023-02-23T13:17:25.867Z,7.28
2023-02-23T13:22:40.895Z,8.05
2023-02-23T13:27:50.464Z,9.80
2023-02-23T13:32:52.375Z,10.85
2023-02-23T13:38:12.813Z,9.48
2023-02-23T13:43:23.216Z,8.32
2023-02-23T13:48:32.321Z,11.88
2023-02-23T13:53:59.755Z,11.48
2023-02-23T13:59:12.394Z,8.38
2023-02-23T14:04:23.130Z,10.25
2023-02-23T14:09:34.781Z,13.48
2023-02-23T14:14:36.956Z,10.50
2023-02-23T14:20:01.774Z,11.27
2023-02-23T14:25:34.405Z,8.90
2023-02-23T14:30:50.817Z,12.90
2023-02-23T14:35:54.313Z,12.15
2023-02-23T14:40:56.082Z,12.82
2023-02-23T14:45:58.897Z,13.85
2023-02-23T14:51:17.008Z,13.25
2023-02-23T14:56:28.089Z,13.32
2023-02-23T15:01:39.515Z,13.30
2023-02-23T15:06:42.534Z,13.68
2023-02-23T15:11:48.505Z,12.05
2023-02-23T15:16:50.340Z,9.23
2023-02-23T15:21:53.818Z,11.55
2023-02-23T15:26:56.498Z,8.30
2023-02-23T15:32:17.751Z,11.23
2023-02-23T15:37:35.272Z,10.35
2023-02-23T15:42:39.261Z,10.93
2023-02-23T15:47:40.839Z,10.45
2023-02-23T15:52:50.289Z,10.77
2023-02-23T15:57:58.822Z,11.38
2023-02-23T16:03:02.571Z,12.65
2023-02-23T16:08:06.577Z,10.43
2023-02-23T16:13:12.873Z,11.27
2023-02-23T16:18:27.484Z,14.05
2023-02-23T16:23:34.584Z,15.43
2023-02-23T16:28:41.246Z,11.82
2023-02-23T16:33:50.928Z,13.10
2023-02-23T16:38:52.786Z,13.68
2023-02-23T16:43:57.454Z,13.30
2023-02-23T16:49:12.945Z,14.38
2023-02-23T16:54:14.533Z,12.32
2023-02-23T16:59:18.458Z,12.48
2023-02-23T17:14:53.115Z,15.27
2023-02-23T17:19:54.483Z,15.38
2023-02-23T17:24:55.786Z,15.38
2023-02-23T17:29:57.150Z,16.23
2023-02-23T17:34:58.634Z,21.17
2023-02-23T17:40:00.030Z,19.27
2023-02-23T17:45:06.658Z,18.60
2023-02-23T17:50:08.685Z,23.80
2023-02-23T17:55:10.123Z,19.23
2023-02-23T18:00:13.084Z,24.23
2023-02-23T18:05:15.398Z,21.58
2023-02-23T18:10:17.318Z,41.65
2023-02-23T18:15:20.566Z,26.17
2023-02-23T18:20:21.929Z,20.42
2023-02-23T18:25:26.829Z,23.17
2023-02-23T18:30:28.161Z,20.25
2023-02-23T18:35:38.960Z,21.63
2023-02-23T18:40:40.368Z,19.60
2023-02-23T18:45:43.134Z,27.67
2023-02-23T18:50:44.482Z,22.33
2023-02-23T18:55:47.143Z,23.92
2023-02-23T19:00:48.561Z,22.35
2023-02-23T19:05:53.191Z,27.38
2023-02-23T19:10:54.578Z,24.27
2023-02-23T19:15:56.105Z,20.15
2023-02-23T19:20:57.614Z,19.02
2023-02-23T19:26:02.207Z,20.75
2023-02-23T19:31:06.166Z,17.92
2023-02-23T19:36:10.064Z,19.15
2023-02-23T19:41:14.949Z,15.35
2023-02-23T19:46:17.173Z,18.02
2023-02-23T19:51:19.793Z,20.30
2023-02-23T19:56:23.019Z,20.38
2023-02-23T20:01:27.415Z,17.45
2023-02-23T20:06:31.940Z,20.40
2023-02-23T20:11:33.498Z,19.35
2023-02-23T20:16:35.534Z,17.67
2023-02-23T20:21:37.193Z,18.45
2023-02-23T20:26:38.698Z,16.52
2023-02-23T20:31:51.375Z,16.92
2023-02-23T20:36:54.987Z,18.05
2023-02-23T20:41:56.453Z,17.17
2023-02-23T20:46:57.801Z,16.27
2023-02-23T20:51:59.148Z,15.40
2023-02-23T20:57:07.506Z,19.15
2023-02-23T21:02:13.626Z,19.05
2023-02-23T21:07:15.053Z,22.52
2023-02-23T21:12:16.417Z,18.92
2023-02-23T21:17:17.770Z,25.98
2023-02-23T21:22:19.127Z,24.60
2023-02-23T21:27:20.453Z,27.63
2023-02-23T21:32:22.819Z,28.02
2023-02-23T21:37:24.506Z,32.13
2023-02-23T21:42:26.537Z,29.90
2023-02-23T21:47:27.874Z,30.63
2023-02-23T21:52:31.234Z,28.95
2023-02-23T21:57:33.247Z,28.77
2023-02-23T22:02:38.234Z,26.17
2023-02-23T22:07:39.869Z,27.90
2023-02-23T22:12:41.323Z,28.98
2023-02-23T22:17:43.615Z,26.70
2023-02-23T22:22:45.526Z,28.90
2023-02-23T22:27:46.971Z,28.10
2023-02-23T22:32:48.665Z,27.02
2023-02-23T22:37:50.137Z,26.60
2023-02-23T22:42:51.491Z,29.23
2023-02-23T22:47:52.814Z,25.73
2023-02-23T22:52:54.155Z,23.58
2023-02-23T22:57:56.487Z,27.92
2023-02-23T23:02:57.874Z,31.83
2023-02-23T23:07:59.731Z,23.95
2023-02-23T23:13:03.053Z,27.45
2023-02-23T23:18:13.833Z,30.50
2023-02-23T23:23:17.073Z,28.80
2023-02-23T23:28:19.721Z,32.13
2023-02-23T23:33:21.034Z,28.45
2023-02-23T23:38:22.417Z,26.55
2023-02-23T23:43:25.235Z,30.70
2023-02-23T23:48:26.529Z,29.95
2023-02-23T23:53:27.837Z,30.38
2023-02-23T23:58:29.161Z,32.75
